sensor_id;sensor_type;location;lat;lon;timestamp;P1;durP1;ratioP1;P2;durP2;ratioP2
67776;SDS011;54576;52.020;5.536;2023-11-22T00:00:10;13.10;;;8.85;;
67776;SDS011;54576;52.020;5.536;2023-11-22T00:02:37;12.90;;;8.43;;
67776;SDS011;54576;52.020;5.536;2023-11-22T00:05:03;17.40;;;8.30;;
67776;SDS011;54576;52.020;5.536;2023-11-22T00:07:30;16.98;;;9.10;;
67776;SDS011;54576;52.020;5.536;2023-11-22T00:09:56;22.08;;;9.32;;
67776;SDS011;54576;52.020;5.536;2023-11-22T00:12:22;20.70;;;9.48;;
67776;SDS011;54576;52.020;5.536;2023-11-22T00:14:50;17.73;;;9.35;;
67776;SDS011;54576;52.020;5.536;2023-11-22T00:17:16;17.63;;;9.02;;
67776;SDS011;54576;52.020;5.536;2023-11-22T00:19:43;17.00;;;9.20;;
67776;SDS011;54576;52.020;5.536;2023-11-22T00:22:09;12.82;;;8.68;;
67776;SDS011;54576;52.020;5.536;2023-11-22T00:24:39;14.85;;;8.55;;
67776;SDS011;54576;52.020;5.536;2023-11-22T00:27:05;22.85;;;8.00;;
67776;SDS011;54576;52.020;5.536;2023-11-22T00:29:31;14.88;;;8.07;;
67776;SDS011;54576;52.020;5.536;2023-11-22T00:31:57;12.75;;;8.20;;
67776;SDS011;54576;52.020;5.536;2023-11-22T00:34:22;23.80;;;8.20;;
67776;SDS011;54576;52.020;5.536;2023-11-22T00:36:48;13.70;;;8.30;;
67776;SDS011;54576;52.020;5.536;2023-11-22T00:39:15;18.38;;;8.27;;
67776;SDS011;54576;52.020;5.536;2023-11-22T00:41:41;17.00;;;7.85;;
67776;SDS011;54576;52.020;5.536;2023-11-22T00:44:07;11.88;;;8.27;;
67776;SDS011;54576;52.020;5.536;2023-11-22T00:46:33;20.65;;;8.00;;
67776;SDS011;54576;52.020;5.536;2023-11-22T00:48:58;14.00;;;8.48;;
67776;SDS011;54576;52.020;5.536;2023-11-22T00:51:24;19.90;;;7.75;;
67776;SDS011;54576;52.020;5.536;2023-11-22T00:53:49;11.40;;;8.27;;
67776;SDS011;54576;52.020;5.536;2023-11-22T00:56:15;13.82;;;8.77;;
67776;SDS011;54576;52.020;5.536;2023-11-22T00:58:41;11.45;;;7.75;;
67776;SDS011;54576;52.020;5.536;2023-11-22T01:01:07;17.85;;;8.32;;
67776;SDS011;54576;52.020;5.536;2023-11-22T01:03:33;17.48;;;8.77;;
67776;SDS011;54576;52.020;5.536;2023-11-22T01:06:00;13.02;;;8.65;;
67776;SDS011;54576;52.020;5.536;2023-11-22T01:08:26;27.85;;;8.82;;
67776;SDS011;54576;52.020;5.536;2023-11-22T01:10:51;11.75;;;7.88;;
67776;SDS011;54576;52.020;5.536;2023-11-22T01:13:17;15.00;;;8.52;;
67776;SDS011;54576;52.020;5.536;2023-11-22T01:15:43;14.80;;;8.73;;
67776;SDS011;54576;52.020;5.536;2023-11-22T01:18:09;12.80;;;8.55;;
67776;SDS011;54576;52.020;5.536;2023-11-22T01:20:35;11.95;;;8.00;;
67776;SDS011;54576;52.020;5.536;2023-11-22T01:23:01;15.40;;;9.05;;
67776;SDS011;54576;52.020;5.536;2023-11-22T01:25:27;14.43;;;8.75;;
67776;SDS011;54576;52.020;5.536;2023-11-22T01:27:53;19.38;;;9.65;;
67776;SDS011;54576;52.020;5.536;2023-11-22T01:30:19;17.50;;;8.45;;
67776;SDS011;54576;52.020;5.536;2023-11-22T01:32:44;12.55;;;8.02;;
67776;SDS011;54576;52.020;5.536;2023-11-22T01:35:10;12.38;;;8.02;;
67776;SDS011;54576;52.020;5.536;2023-11-22T01:37:36;11.90;;;8.65;;
67776;SDS011;54576;52.020;5.536;2023-11-22T01:40:02;11.07;;;7.78;;
67776;SDS011;54576;52.020;5.536;2023-11-22T01:42:29;14.50;;;7.70;;
67776;SDS011;54576;52.020;5.536;2023-11-22T01:44:54;13.80;;;7.35;;
67776;SDS011;54576;52.020;5.536;2023-11-22T01:47:20;12.90;;;8.10;;
67776;SDS011;54576;52.020;5.536;2023-11-22T01:49:46;15.70;;;7.47;;
67776;SDS011;54576;52.020;5.536;2023-11-22T01:52:12;13.35;;;8.63;;
67776;SDS011;54576;52.020;5.536;2023-11-22T01:54:38;13.38;;;7.93;;
67776;SDS011;54576;52.020;5.536;2023-11-22T01:57:04;13.70;;;8.30;;
67776;SDS011;54576;52.020;5.536;2023-11-22T01:59:33;11.75;;;8.43;;
67776;SDS011;54576;52.020;5.536;2023-11-22T02:01:58;15.02;;;8.18;;
67776;SDS011;54576;52.020;5.536;2023-11-22T02:04:24;20.20;;;8.00;;
67776;SDS011;54576;52.020;5.536;2023-11-22T02:06:50;10.02;;;7.78;;
67776;SDS011;54576;52.020;5.536;2023-11-22T02:09:16;12.93;;;8.52;;
67776;SDS011;54576;52.020;5.536;2023-11-22T02:11:42;15.02;;;8.40;;
67776;SDS011;54576;52.020;5.536;2023-11-22T02:14:10;13.50;;;8.52;;
67776;SDS011;54576;52.020;5.536;2023-11-22T02:16:36;12.73;;;8.43;;
67776;SDS011;54576;52.020;5.536;2023-11-22T02:19:03;15.25;;;8.15;;
67776;SDS011;54576;52.020;5.536;2023-11-22T02:21:32;13.82;;;8.60;;
67776;SDS011;54576;52.020;5.536;2023-11-22T02:24:00;15.50;;;8.77;;
67776;SDS011;54576;52.020;5.536;2023-11-22T02:26:26;14.70;;;9.30;;
67776;SDS011;54576;52.020;5.536;2023-11-22T02:28:52;21.05;;;8.75;;
67776;SDS011;54576;52.020;5.536;2023-11-22T02:31:18;14.55;;;9.45;;
67776;SDS011;54576;52.020;5.536;2023-11-22T02:33:44;23.60;;;9.13;;
67776;SDS011;54576;52.020;5.536;2023-11-22T02:36:09;17.02;;;9.55;;
67776;SDS011;54576;52.020;5.536;2023-11-22T02:38:37;15.80;;;8.63;;
67776;SDS011;54576;52.020;5.536;2023-11-22T02:41:03;11.63;;;8.05;;
67776;SDS011;54576;52.020;5.536;2023-11-22T02:43:29;17.75;;;9.23;;
67776;SDS011;54576;52.020;5.536;2023-11-22T02:45:55;14.15;;;7.95;;
67776;SDS011;54576;52.020;5.536;2023-11-22T02:48:20;15.40;;;8.60;;
67776;SDS011;54576;52.020;5.536;2023-11-22T02:50:46;14.50;;;8.50;;
67776;SDS011;54576;52.020;5.536;2023-11-22T02:53:12;13.20;;;8.25;;
67776;SDS011;54576;52.020;5.536;2023-11-22T02:55:37;17.10;;;8.10;;
67776;SDS011;54576;52.020;5.536;2023-11-22T02:58:03;19.05;;;9.25;;
67776;SDS011;54576;52.020;5.536;2023-11-22T03:00:29;16.80;;;7.78;;
67776;SDS011;54576;52.020;5.536;2023-11-22T03:02:54;11.65;;;7.85;;
67776;SDS011;54576;52.020;5.536;2023-11-22T03:05:21;14.18;;;7.75;;
67776;SDS011;54576;52.020;5.536;2023-11-22T03:07:47;11.27;;;7.80;;
67776;SDS011;54576;52.020;5.536;2023-11-22T03:10:13;13.00;;;8.50;;
67776;SDS011;54576;52.020;5.536;2023-11-22T03:12:39;15.38;;;8.00;;
67776;SDS011;54576;52.020;5.536;2023-11-22T03:15:05;12.20;;;8.13;;
67776;SDS011;54576;52.020;5.536;2023-11-22T03:17:31;17.15;;;8.52;;
67776;SDS011;54576;52.020;5.536;2023-11-22T03:19:58;14.68;;;8.10;;
67776;SDS011;54576;52.020;5.536;2023-11-22T03:22:24;12.05;;;8.48;;
67776;SDS011;54576;52.020;5.536;2023-11-22T03:24:50;15.98;;;8.65;;
67776;SDS011;54576;52.020;5.536;2023-11-22T03:27:16;16.33;;;8.93;;
67776;SDS011;54576;52.020;5.536;2023-11-22T03:29:41;19.98;;;9.10;;
67776;SDS011;54576;52.020;5.536;2023-11-22T03:32:07;12.20;;;8.25;;
67776;SDS011;54576;52.020;5.536;2023-11-22T03:34:33;16.90;;;8.52;;
67776;SDS011;54576;52.020;5.536;2023-11-22T03:36:58;13.65;;;8.45;;
67776;SDS011;54576;52.020;5.536;2023-11-22T03:39:24;23.02;;;7.90;;
67776;SDS011;54576;52.020;5.536;2023-11-22T03:41:49;12.20;;;8.38;;
67776;SDS011;54576;52.020;5.536;2023-11-22T03:44:15;10.80;;;8.65;;
67776;SDS011;54576;52.020;5.536;2023-11-22T03:46:41;13.90;;;8.60;;
67776;SDS011;54576;52.020;5.536;2023-11-22T03:49:07;12.82;;;9.00;;
67776;SDS011;54576;52.020;5.536;2023-11-22T03:51:33;12.07;;;8.48;;
67776;SDS011;54576;52.020;5.536;2023-11-22T03:54:00;23.42;;;10.27;;
67776;SDS011;54576;52.020;5.536;2023-11-22T03:56:27;19.50;;;10.85;;
67776;SDS011;54576;52.020;5.536;2023-11-22T03:58:53;18.13;;;10.30;;
67776;SDS011;54576;52.020;5.536;2023-11-22T04:01:19;19.88;;;9.38;;
67776;SDS011;54576;52.020;5.536;2023-11-22T04:03:45;15.70;;;8.90;;
67776;SDS011;54576;52.020;5.536;2023-11-22T04:06:13;13.00;;;8.60;;
67776;SDS011;54576;52.020;5.536;2023-11-22T04:08:40;15.07;;;8.55;;
67776;SDS011;54576;52.020;5.536;2023-11-22T04:11:08;13.07;;;8.60;;
67776;SDS011;54576;52.020;5.536;2023-11-22T04:13:34;14.48;;;9.30;;
67776;SDS011;54576;52.020;5.536;2023-11-22T04:16:04;14.57;;;9.35;;
67776;SDS011;54576;52.020;5.536;2023-11-22T04:18:33;12.82;;;8.05;;
67776;SDS011;54576;52.020;5.536;2023-11-22T04:21:00;15.55;;;8.55;;
67776;SDS011;54576;52.020;5.536;2023-11-22T04:23:26;12.68;;;8.10;;
67776;SDS011;54576;52.020;5.536;2023-11-22T04:25:52;16.52;;;8.55;;
67776;SDS011;54576;52.020;5.536;2023-11-22T04:28:17;11.88;;;8.75;;
67776;SDS011;54576;52.020;5.536;2023-11-22T04:30:43;14.05;;;8.65;;
67776;SDS011;54576;52.020;5.536;2023-11-22T04:33:08;14.88;;;8.38;;
67776;SDS011;54576;52.020;5.536;2023-11-22T04:35:34;14.95;;;8.57;;
67776;SDS011;54576;52.020;5.536;2023-11-22T04:38:02;12.45;;;8.55;;
67776;SDS011;54576;52.020;5.536;2023-11-22T04:40:28;9.70;;;7.47;;
67776;SDS011;54576;52.020;5.536;2023-11-22T04:42:54;15.65;;;8.10;;
67776;SDS011;54576;52.020;5.536;2023-11-22T04:45:20;14.48;;;8.60;;
67776;SDS011;54576;52.020;5.536;2023-11-22T04:47:46;12.35;;;7.60;;
67776;SDS011;54576;52.020;5.536;2023-11-22T04:50:11;12.77;;;8.13;;
67776;SDS011;54576;52.020;5.536;2023-11-22T04:52:37;12.65;;;8.18;;
67776;SDS011;54576;52.020;5.536;2023-11-22T04:55:04;13.52;;;8.05;;
67776;SDS011;54576;52.020;5.536;2023-11-22T04:57:30;9.85;;;7.55;;
67776;SDS011;54576;52.020;5.536;2023-11-22T04:59:55;10.75;;;7.20;;
67776;SDS011;54576;52.020;5.536;2023-11-22T05:02:22;15.20;;;8.10;;
67776;SDS011;54576;52.020;5.536;2023-11-22T05:04:47;15.55;;;8.75;;
67776;SDS011;54576;52.020;5.536;2023-11-22T05:07:14;10.73;;;8.25;;
67776;SDS011;54576;52.020;5.536;2023-11-22T05:09:40;13.32;;;8.25;;
67776;SDS011;54576;52.020;5.536;2023-11-22T05:12:06;9.73;;;7.38;;
67776;SDS011;54576;52.020;5.536;2023-11-22T05:14:32;11.45;;;7.72;;
67776;SDS011;54576;52.020;5.536;2023-11-22T05:16:57;16.45;;;8.43;;
67776;SDS011;54576;52.020;5.536;2023-11-22T05:19:23;16.42;;;7.72;;
67776;SDS011;54576;52.020;5.536;2023-11-22T05:21:49;10.32;;;7.53;;
67776;SDS011;54576;52.020;5.536;2023-11-22T05:24:15;10.63;;;7.88;;
67776;SDS011;54576;52.020;5.536;2023-11-22T05:26:40;11.00;;;7.82;;
67776;SDS011;54576;52.020;5.536;2023-11-22T05:29:06;13.55;;;8.52;;
67776;SDS011;54576;52.020;5.536;2023-11-22T05:31:32;13.90;;;8.82;;
67776;SDS011;54576;52.020;5.536;2023-11-22T05:33:57;11.85;;;8.57;;
67776;SDS011;54576;52.020;5.536;2023-11-22T05:36:23;15.70;;;9.27;;
67776;SDS011;54576;52.020;5.536;2023-11-22T05:38:48;11.73;;;8.77;;
67776;SDS011;54576;52.020;5.536;2023-11-22T05:41:14;14.07;;;8.95;;
67776;SDS011;54576;52.020;5.536;2023-11-22T05:43:40;22.58;;;9.88;;
67776;SDS011;54576;52.020;5.536;2023-11-22T05:46:07;18.02;;;9.38;;
67776;SDS011;54576;52.020;5.536;2023-11-22T05:48:33;15.88;;;9.98;;
67776;SDS011;54576;52.020;5.536;2023-11-22T05:50:59;14.48;;;9.32;;
67776;SDS011;54576;52.020;5.536;2023-11-22T05:53:25;20.85;;;9.50;;
67776;SDS011;54576;52.020;5.536;2023-11-22T05:55:50;15.32;;;9.48;;
67776;SDS011;54576;52.020;5.536;2023-11-22T05:58:17;53.67;;;28.02;;
67776;SDS011;54576;52.020;5.536;2023-11-22T06:00:43;28.10;;;15.57;;
67776;SDS011;54576;52.020;5.536;2023-11-22T06:03:12;27.13;;;16.25;;
67776;SDS011;54576;52.020;5.536;2023-11-22T06:05:38;20.42;;;13.05;;
67776;SDS011;54576;52.020;5.536;2023-11-22T06:08:05;20.30;;;10.07;;
67776;SDS011;54576;52.020;5.536;2023-11-22T06:10:31;23.23;;;10.05;;
67776;SDS011;54576;52.020;5.536;2023-11-22T06:12:56;19.80;;;9.48;;
67776;SDS011;54576;52.020;5.536;2023-11-22T06:15:22;17.80;;;9.18;;
67776;SDS011;54576;52.020;5.536;2023-11-22T06:17:48;15.60;;;9.65;;
67776;SDS011;54576;52.020;5.536;2023-11-22T06:20:14;14.88;;;8.95;;
67776;SDS011;54576;52.020;5.536;2023-11-22T06:22:40;16.73;;;9.48;;
67776;SDS011;54576;52.020;5.536;2023-11-22T06:25:10;13.70;;;9.18;;
67776;SDS011;54576;52.020;5.536;2023-11-22T06:27:37;13.45;;;8.60;;
67776;SDS011;54576;52.020;5.536;2023-11-22T06:30:03;12.57;;;8.52;;
67776;SDS011;54576;52.020;5.536;2023-11-22T06:32:31;21.88;;;9.30;;
67776;SDS011;54576;52.020;5.536;2023-11-22T06:34:57;15.98;;;8.88;;
67776;SDS011;54576;52.020;5.536;2023-11-22T06:37:22;13.70;;;9.98;;
67776;SDS011;54576;52.020;5.536;2023-11-22T06:39:48;28.05;;;10.13;;
67776;SDS011;54576;52.020;5.536;2023-11-22T06:42:15;16.33;;;10.60;;
67776;SDS011;54576;52.020;5.536;2023-11-22T06:44:41;19.90;;;10.85;;
67776;SDS011;54576;52.020;5.536;2023-11-22T06:47:07;21.05;;;10.65;;
67776;SDS011;54576;52.020;5.536;2023-11-22T06:49:33;13.48;;;9.32;;
67776;SDS011;54576;52.020;5.536;2023-11-22T06:52:01;17.80;;;10.25;;
67776;SDS011;54576;52.020;5.536;2023-11-22T06:54:26;18.70;;;9.38;;
67776;SDS011;54576;52.020;5.536;2023-11-22T06:56:52;15.10;;;9.95;;
67776;SDS011;54576;52.020;5.536;2023-11-22T06:59:18;28.92;;;14.98;;
67776;SDS011;54576;52.020;5.536;2023-11-22T07:01:44;26.15;;;14.43;;
67776;SDS011;54576;52.020;5.536;2023-11-22T07:04:10;22.02;;;13.05;;
67776;SDS011;54576;52.020;5.536;2023-11-22T07:06:36;20.40;;;11.93;;
67776;SDS011;54576;52.020;5.536;2023-11-22T07:09:03;19.38;;;11.10;;
67776;SDS011;54576;52.020;5.536;2023-11-22T07:11:29;31.25;;;11.55;;
67776;SDS011;54576;52.020;5.536;2023-11-22T07:13:55;23.85;;;11.35;;
67776;SDS011;54576;52.020;5.536;2023-11-22T07:16:22;19.33;;;10.88;;
67776;SDS011;54576;52.020;5.536;2023-11-22T07:18:49;14.60;;;9.43;;
67776;SDS011;54576;52.020;5.536;2023-11-22T07:21:15;18.13;;;10.52;;
67776;SDS011;54576;52.020;5.536;2023-11-22T07:23:41;17.75;;;10.50;;
67776;SDS011;54576;52.020;5.536;2023-11-22T07:26:08;14.30;;;9.65;;
67776;SDS011;54576;52.020;5.536;2023-11-22T07:28:35;18.02;;;10.45;;
67776;SDS011;54576;52.020;5.536;2023-11-22T07:31:01;17.70;;;10.88;;
67776;SDS011;54576;52.020;5.536;2023-11-22T07:33:27;17.25;;;11.35;;
67776;SDS011;54576;52.020;5.536;2023-11-22T07:35:53;16.48;;;10.30;;
67776;SDS011;54576;52.020;5.536;2023-11-22T07:38:18;25.33;;;10.43;;
67776;SDS011;54576;52.020;5.536;2023-11-22T07:40:44;15.40;;;9.38;;
67776;SDS011;54576;52.020;5.536;2023-11-22T07:43:10;22.02;;;9.60;;
67776;SDS011;54576;52.020;5.536;2023-11-22T07:45:35;15.25;;;10.48;;
67776;SDS011;54576;52.020;5.536;2023-11-22T07:48:02;19.20;;;11.23;;
67776;SDS011;54576;52.020;5.536;2023-11-22T07:50:29;20.35;;;11.60;;
67776;SDS011;54576;52.020;5.536;2023-11-22T07:52:54;32.85;;;12.02;;
67776;SDS011;54576;52.020;5.536;2023-11-22T07:55:21;19.70;;;11.00;;
67776;SDS011;54576;52.020;5.536;2023-11-22T07:57:47;19.65;;;12.32;;
67776;SDS011;54576;52.020;5.536;2023-11-22T08:00:15;17.67;;;11.60;;
67776;SDS011;54576;52.020;5.536;2023-11-22T08:02:44;34.23;;;12.50;;
67776;SDS011;54576;52.020;5.536;2023-11-22T08:05:10;23.73;;;11.93;;
67776;SDS011;54576;52.020;5.536;2023-11-22T08:07:37;23.77;;;12.27;;
67776;SDS011;54576;52.020;5.536;2023-11-22T08:10:05;25.83;;;14.00;;
67776;SDS011;54576;52.020;5.536;2023-11-22T08:12:35;20.80;;;12.23;;
67776;SDS011;54576;52.020;5.536;2023-11-22T08:17:30;27.42;;;13.90;;
67776;SDS011;54576;52.020;5.536;2023-11-22T08:19:58;26.95;;;15.05;;
67776;SDS011;54576;52.020;5.536;2023-11-22T08:22:25;40.80;;;19.92;;
67776;SDS011;54576;52.020;5.536;2023-11-22T08:24:53;29.08;;;14.25;;
67776;SDS011;54576;52.020;5.536;2023-11-22T08:27:20;24.58;;;13.38;;
67776;SDS011;54576;52.020;5.536;2023-11-22T08:29:46;25.77;;;13.40;;
67776;SDS011;54576;52.020;5.536;2023-11-22T08:32:13;29.58;;;13.80;;
67776;SDS011;54576;52.020;5.536;2023-11-22T08:34:38;29.67;;;13.75;;
67776;SDS011;54576;52.020;5.536;2023-11-22T08:37:04;25.88;;;14.10;;
67776;SDS011;54576;52.020;5.536;2023-11-22T08:39:29;32.78;;;14.88;;
67776;SDS011;54576;52.020;5.536;2023-11-22T08:41:55;23.85;;;13.05;;
67776;SDS011;54576;52.020;5.536;2023-11-22T08:44:23;45.65;;;15.00;;
67776;SDS011;54576;52.020;5.536;2023-11-22T08:46:49;31.45;;;16.25;;
67776;SDS011;54576;52.020;5.536;2023-11-22T08:49:14;34.60;;;14.18;;
67776;SDS011;54576;52.020;5.536;2023-11-22T08:51:40;44.42;;;22.10;;
67776;SDS011;54576;52.020;5.536;2023-11-22T08:54:07;29.98;;;16.63;;
67776;SDS011;54576;52.020;5.536;2023-11-22T08:56:33;27.77;;;15.20;;
67776;SDS011;54576;52.020;5.536;2023-11-22T08:59:00;28.27;;;14.98;;
67776;SDS011;54576;52.020;5.536;2023-11-22T09:01:25;29.50;;;16.38;;
67776;SDS011;54576;52.020;5.536;2023-11-22T09:03:51;34.95;;;14.55;;
67776;SDS011;54576;52.020;5.536;2023-11-22T09:06:17;28.85;;;15.20;;
67776;SDS011;54576;52.020;5.536;2023-11-22T09:08:43;35.90;;;14.98;;
67776;SDS011;54576;52.020;5.536;2023-11-22T09:11:11;26.08;;;14.63;;
67776;SDS011;54576;52.020;5.536;2023-11-22T09:13:36;25.70;;;14.52;;
67776;SDS011;54576;52.020;5.536;2023-11-22T09:16:02;24.58;;;14.52;;
67776;SDS011;54576;52.020;5.536;2023-11-22T09:18:30;28.98;;;14.63;;
67776;SDS011;54576;52.020;5.536;2023-11-22T09:20:55;31.90;;;14.43;;
67776;SDS011;54576;52.020;5.536;2023-11-22T09:23:21;26.33;;;14.02;;
67776;SDS011;54576;52.020;5.536;2023-11-22T09:25:47;26.17;;;15.00;;
67776;SDS011;54576;52.020;5.536;2023-11-22T09:28:12;34.47;;;18.17;;
67776;SDS011;54576;52.020;5.536;2023-11-22T09:30:40;23.83;;;13.88;;
67776;SDS011;54576;52.020;5.536;2023-11-22T09:35:35;26.85;;;14.27;;
67776;SDS011;54576;52.020;5.536;2023-11-22T09:38:01;23.55;;;13.73;;
67776;SDS011;54576;52.020;5.536;2023-11-22T09:40:34;32.50;;;15.32;;
67776;SDS011;54576;52.020;5.536;2023-11-22T09:43:01;24.50;;;14.05;;
67776;SDS011;54576;52.020;5.536;2023-11-22T09:45:27;35.80;;;13.82;;
67776;SDS011;54576;52.020;5.536;2023-11-22T09:47:55;23.83;;;14.40;;
67776;SDS011;54576;52.020;5.536;2023-11-22T09:50:30;23.63;;;13.98;;
67776;SDS011;54576;52.020;5.536;2023-11-22T09:56:05;23.27;;;13.48;;
67776;SDS011;54576;52.020;5.536;2023-11-22T09:58:35;24.20;;;13.60;;
67776;SDS011;54576;52.020;5.536;2023-11-22T10:01:03;26.80;;;12.57;;
67776;SDS011;54576;52.020;5.536;2023-11-22T10:03:30;24.50;;;12.45;;
67776;SDS011;54576;52.020;5.536;2023-11-22T10:05:56;19.40;;;12.30;;
67776;SDS011;54576;52.020;5.536;2023-11-22T10:08:24;23.95;;;12.27;;
67776;SDS011;54576;52.020;5.536;2023-11-22T10:10:51;20.42;;;11.48;;
67776;SDS011;54576;52.020;5.536;2023-11-22T10:13:19;26.05;;;13.55;;
67776;SDS011;54576;52.020;5.536;2023-11-22T10:15:48;18.98;;;12.15;;
67776;SDS011;54576;52.020;5.536;2023-11-22T10:20:42;21.50;;;11.45;;
67776;SDS011;54576;52.020;5.536;2023-11-22T10:23:11;17.75;;;11.18;;
67776;SDS011;54576;52.020;5.536;2023-11-22T10:25:48;23.33;;;11.85;;
67776;SDS011;54576;52.020;5.536;2023-11-22T10:30:47;18.77;;;10.98;;
67776;SDS011;54576;52.020;5.536;2023-11-22T10:33:15;16.95;;;10.70;;
67776;SDS011;54576;52.020;5.536;2023-11-22T10:35:45;22.38;;;11.55;;
67776;SDS011;54576;52.020;5.536;2023-11-22T10:38:14;20.52;;;12.07;;
67776;SDS011;54576;52.020;5.536;2023-11-22T10:40:40;19.08;;;10.68;;
67776;SDS011;54576;52.020;5.536;2023-11-22T10:43:09;22.15;;;11.43;;
67776;SDS011;54576;52.020;5.536;2023-11-22T10:45:36;25.92;;;11.30;;
67776;SDS011;54576;52.020;5.536;2023-11-22T10:48:03;20.63;;;10.88;;
67776;SDS011;54576;52.020;5.536;2023-11-22T10:50:30;16.73;;;11.00;;
67776;SDS011;54576;52.020;5.536;2023-11-22T10:52:56;19.42;;;11.55;;
67776;SDS011;54576;52.020;5.536;2023-11-22T10:55:26;22.25;;;13.40;;
67776;SDS011;54576;52.020;5.536;2023-11-22T10:57:53;22.08;;;10.93;;
67776;SDS011;54576;52.020;5.536;2023-11-22T11:00:26;17.15;;;10.82;;
67776;SDS011;54576;52.020;5.536;2023-11-22T11:02:56;16.60;;;11.10;;
67776;SDS011;54576;52.020;5.536;2023-11-22T11:05:32;19.83;;;10.35;;
67776;SDS011;54576;52.020;5.536;2023-11-22T11:08:00;16.40;;;10.57;;
67776;SDS011;54576;52.020;5.536;2023-11-22T11:10:42;15.50;;;9.43;;
67776;SDS011;54576;52.020;5.536;2023-11-22T11:13:11;13.68;;;9.20;;
67776;SDS011;54576;52.020;5.536;2023-11-22T11:15:38;21.05;;;10.77;;
67776;SDS011;54576;52.020;5.536;2023-11-22T11:18:06;14.93;;;9.15;;
67776;SDS011;54576;52.020;5.536;2023-11-22T11:20:33;14.77;;;9.80;;
67776;SDS011;54576;52.020;5.536;2023-11-22T11:23:13;22.83;;;10.05;;
67776;SDS011;54576;52.020;5.536;2023-11-22T11:25:39;13.57;;;9.25;;
67776;SDS011;54576;52.020;5.536;2023-11-22T11:28:09;16.92;;;10.25;;
67776;SDS011;54576;52.020;5.536;2023-11-22T11:30:43;13.18;;;9.23;;
67776;SDS011;54576;52.020;5.536;2023-11-22T11:33:19;15.82;;;10.25;;
67776;SDS011;54576;52.020;5.536;2023-11-22T11:35:52;23.25;;;9.77;;
67776;SDS011;54576;52.020;5.536;2023-11-22T11:38:21;18.98;;;9.88;;
67776;SDS011;54576;52.020;5.536;2023-11-22T11:40:51;17.00;;;10.40;;
67776;SDS011;54576;52.020;5.536;2023-11-22T11:46:11;17.08;;;9.95;;
67776;SDS011;54576;52.020;5.536;2023-11-22T11:48:37;13.48;;;9.45;;
67776;SDS011;54576;52.020;5.536;2023-11-22T11:51:03;16.00;;;10.15;;
67776;SDS011;54576;52.020;5.536;2023-11-22T11:53:28;23.90;;;10.10;;
67776;SDS011;54576;52.020;5.536;2023-11-22T11:55:56;15.52;;;10.25;;
67776;SDS011;54576;52.020;5.536;2023-11-22T11:58:23;22.05;;;11.85;;
67776;SDS011;54576;52.020;5.536;2023-11-22T12:00:50;20.10;;;10.30;;
67776;SDS011;54576;52.020;5.536;2023-11-22T12:03:19;17.67;;;11.23;;
67776;SDS011;54576;52.020;5.536;2023-11-22T12:05:46;20.23;;;11.52;;
67776;SDS011;54576;52.020;5.536;2023-11-22T12:08:13;20.33;;;12.68;;
67776;SDS011;54576;52.020;5.536;2023-11-22T12:10:40;21.40;;;11.93;;
67776;SDS011;54576;52.020;5.536;2023-11-22T12:13:06;28.70;;;14.43;;
67776;SDS011;54576;52.020;5.536;2023-11-22T12:15:33;25.92;;;13.80;;
67776;SDS011;54576;52.020;5.536;2023-11-22T12:17:59;32.30;;;14.90;;
67776;SDS011;54576;52.020;5.536;2023-11-22T12:20:26;23.10;;;13.65;;
67776;SDS011;54576;52.020;5.536;2023-11-22T12:23:05;24.38;;;14.68;;
67776;SDS011;54576;52.020;5.536;2023-11-22T12:25:32;30.58;;;17.58;;
67776;SDS011;54576;52.020;5.536;2023-11-22T12:27:57;39.05;;;19.65;;
67776;SDS011;54576;52.020;5.536;2023-11-22T12:30:33;38.67;;;20.95;;
67776;SDS011;54576;52.020;5.536;2023-11-22T12:33:10;39.40;;;20.30;;
67776;SDS011;54576;52.020;5.536;2023-11-22T12:35:38;38.55;;;20.25;;
67776;SDS011;54576;52.020;5.536;2023-11-22T12:38:05;39.35;;;21.63;;
67776;SDS011;54576;52.020;5.536;2023-11-22T12:40:31;45.63;;;21.60;;
67776;SDS011;54576;52.020;5.536;2023-11-22T12:42:59;51.05;;;22.25;;
67776;SDS011;54576;52.020;5.536;2023-11-22T12:45:26;47.78;;;24.05;;
67776;SDS011;54576;52.020;5.536;2023-11-22T12:47:54;44.42;;;22.70;;
67776;SDS011;54576;52.020;5.536;2023-11-22T12:50:33;48.53;;;23.50;;
67776;SDS011;54576;52.020;5.536;2023-11-22T12:53:13;44.38;;;21.58;;
67776;SDS011;54576;52.020;5.536;2023-11-22T12:55:46;48.78;;;22.52;;
67776;SDS011;54576;52.020;5.536;2023-11-22T12:58:14;43.47;;;21.60;;
67776;SDS011;54576;52.020;5.536;2023-11-22T13:00:41;36.92;;;21.25;;
67776;SDS011;54576;52.020;5.536;2023-11-22T13:03:13;36.88;;;21.17;;
67776;SDS011;54576;52.020;5.536;2023-11-22T13:05:39;36.08;;;20.20;;
67776;SDS011;54576;52.020;5.536;2023-11-22T13:08:09;36.40;;;20.58;;
67776;SDS011;54576;52.020;5.536;2023-11-22T13:10:48;38.22;;;20.15;;
67776;SDS011;54576;52.020;5.536;2023-11-22T13:13:22;35.58;;;20.38;;
67776;SDS011;54576;52.020;5.536;2023-11-22T13:15:49;34.63;;;19.15;;
67776;SDS011;54576;52.020;5.536;2023-11-22T13:18:15;33.45;;;18.52;;
67776;SDS011;54576;52.020;5.536;2023-11-22T13:20:41;34.70;;;19.50;;
67776;SDS011;54576;52.020;5.536;2023-11-22T13:23:07;24.50;;;15.48;;
67776;SDS011;54576;52.020;5.536;2023-11-22T13:25:33;30.98;;;17.98;;
67776;SDS011;54576;52.020;5.536;2023-11-22T13:27:59;30.23;;;18.33;;
67776;SDS011;54576;52.020;5.536;2023-11-22T13:30:25;33.63;;;17.33;;
67776;SDS011;54576;52.020;5.536;2023-11-22T13:32:53;30.48;;;17.98;;
67776;SDS011;54576;52.020;5.536;2023-11-22T13:35:22;33.22;;;18.75;;
67776;SDS011;54576;52.020;5.536;2023-11-22T13:37:49;27.85;;;17.60;;
67776;SDS011;54576;52.020;5.536;2023-11-22T13:40:18;30.42;;;16.77;;
67776;SDS011;54576;52.020;5.536;2023-11-22T13:42:47;28.73;;;16.63;;
67776;SDS011;54576;52.020;5.536;2023-11-22T13:45:15;30.00;;;17.17;;
67776;SDS011;54576;52.020;5.536;2023-11-22T13:47:46;28.58;;;16.27;;
67776;SDS011;54576;52.020;5.536;2023-11-22T13:50:14;34.90;;;17.75;;
67776;SDS011;54576;52.020;5.536;2023-11-22T13:52:46;32.13;;;17.63;;
67776;SDS011;54576;52.020;5.536;2023-11-22T13:55:15;27.30;;;17.27;;
67776;SDS011;54576;52.020;5.536;2023-11-22T13:57:44;30.63;;;17.23;;
67776;SDS011;54576;52.020;5.536;2023-11-22T14:00:12;28.02;;;17.63;;
67776;SDS011;54576;52.020;5.536;2023-11-22T14:02:43;27.45;;;16.23;;
67776;SDS011;54576;52.020;5.536;2023-11-22T14:07:38;35.05;;;17.40;;
67776;SDS011;54576;52.020;5.536;2023-11-22T14:10:04;26.27;;;17.17;;
67776;SDS011;54576;52.020;5.536;2023-11-22T14:12:31;29.77;;;17.05;;
67776;SDS011;54576;52.020;5.536;2023-11-22T14:14:58;32.58;;;18.05;;
67776;SDS011;54576;52.020;5.536;2023-11-22T14:17:24;33.88;;;17.85;;
67776;SDS011;54576;52.020;5.536;2023-11-22T14:19:50;38.20;;;18.60;;
67776;SDS011;54576;52.020;5.536;2023-11-22T14:22:20;33.63;;;18.63;;
67776;SDS011;54576;52.020;5.536;2023-11-22T14:24:47;36.10;;;18.92;;
67776;SDS011;54576;52.020;5.536;2023-11-22T14:27:14;37.47;;;20.48;;
67776;SDS011;54576;52.020;5.536;2023-11-22T14:29:39;36.03;;;21.25;;
67776;SDS011;54576;52.020;5.536;2023-11-22T14:32:06;45.70;;;21.08;;
67776;SDS011;54576;52.020;5.536;2023-11-22T14:34:32;33.33;;;19.38;;
67776;SDS011;54576;52.020;5.536;2023-11-22T14:36:58;38.42;;;20.52;;
67776;SDS011;54576;52.020;5.536;2023-11-22T14:39:24;33.92;;;20.38;;
67776;SDS011;54576;52.020;5.536;2023-11-22T14:41:49;36.08;;;19.65;;
67776;SDS011;54576;52.020;5.536;2023-11-22T14:44:16;42.70;;;20.08;;